Temp: 17.4°C   Baro: 1010.1mb
  Wind: 6.0mph   Dir: WNW (299°)
  Rain: 0.8mm (0.0mm/hr)
  Solar: 100W/m2  Hum: 91%
 
Bath Spa Weather Station Historical Data
Daily Summary for June 12, 2019 Units:  Both    English   Metric
Daily Weekly Monthly Yearly Custom
  High: Low: Average:
Temperature: 75.6 °F /  24.2 °C 60.3 °F /  15.7 °C 66.8 °F /  19.3 °C
Dew Point: 59.8 °F /  15.4 °C 52.7 °F /  11.5 °C 57.2 °F /  14 °C
Humidity: 93% 51.7% 73%
Wind Speed: 10.8mph /  17.4km/h - 4.1mph /  6.6km/h
Wind Gust: 16mph /  25.7km/h - -
Wind- - WNW
Pressure: 30.15 in /  1020.9 hPa 29.91 in /  1012.8 hPa -
Precipitation: 0.02 in /  0.51 mm    
Historical Graphs
 
 
Tabular Data for June 12, 2019
Time Temperature Dew Point Pressure Wind Wind Speed Wind Gust Humidity Rainfall Rate (Hourly) solar
00:04 62.4 °F /  16.9 °C 57.2 °F /  14 °C 29.92in /  1013.1hPa WNW 3.9mph /  6.3km/h 8mph /  12.9km/h 83% 0.00in /  0mm 0 W/m2
00:09 62.2 °F /  16.8 °C 57 °F /  13.9 °C 29.92in /  1013.1hPa WNW 3.7mph /  6km/h 7mph /  11.3km/h 83% 0.00in /  0mm 0 W/m2
00:14 62.2 °F /  16.8 °C 57.2 °F /  14 °C 29.93in /  1013.4hPa WNW 2.1mph /  3.4km/h 7mph /  11.3km/h 83.4% 0.00in /  0mm 0 W/m2
00:19 62.2 °F /  16.8 °C 57.4 °F /  14.1 °C 29.92in /  1013.1hPa WNW 1mph /  1.6km/h 4mph /  6.4km/h 84% 0.00in /  0mm 0 W/m2
00:24 62.2 °F /  16.8 °C 57.4 °F /  14.1 °C 29.92in /  1013.1hPa WNW 2.9mph /  4.7km/h 6mph /  9.7km/h 84% 0.00in /  0mm 0 W/m2
00:29 62.1 °F /  16.7 °C 57.3 °F /  14.1 °C 29.92in /  1013.1hPa WNW 1.5mph /  2.4km/h 5mph /  8km/h 84% 0.00in /  0mm 0 W/m2
00:34 62.1 °F /  16.7 °C 57.2 °F /  14 °C 29.92in /  1013.1hPa West 3.6mph /  5.8km/h 7mph /  11.3km/h 84% 0.00in /  0mm 0 W/m2
00:39 62 °F /  16.7 °C 57.4 °F /  14.1 °C 29.92in /  1013.1hPa West 4mph /  6.4km/h 7mph /  11.3km/h 84.8% 0.00in /  0mm 0 W/m2
00:44 61.8 °F /  16.6 °C 57.3 °F /  14.1 °C 29.92in /  1013.1hPa West 3.9mph /  6.3km/h 6mph /  9.7km/h 85% 0.00in /  0mm 0 W/m2
00:49 61.7 °F /  16.5 °C 57.2 °F /  14 °C 29.92in /  1013.1hPa WNW 4.1mph /  6.6km/h 7mph /  11.3km/h 85% 0.00in /  0mm 0 W/m2
00:54 61.7 °F /  16.5 °C 57.2 °F /  14 °C 29.92in /  1013.1hPa West 3.6mph /  5.8km/h 7mph /  11.3km/h 85.2% 0.00in /  0mm 0 W/m2
00:59 61.7 °F /  16.5 °C 57.4 °F /  14.1 °C 29.92in /  1013.1hPa WNW 2.7mph /  4.3km/h 7mph /  11.3km/h 86% 0.00in /  0mm 0 W/m2
01:04 61.7 °F /  16.5 °C 57.4 °F /  14.1 °C 29.92in /  1013.1hPa West 2mph /  3.2km/h 5mph /  8km/h 86% 0.00in /  0mm 0 W/m2
01:09 61.7 °F /  16.5 °C 57.4 °F /  14.1 °C 29.92in /  1013.1hPa West 3.4mph /  5.5km/h 6mph /  9.7km/h 86% 0.00in /  0mm 0 W/m2
01:14 61.8 °F /  16.6 °C 57.5 °F /  14.2 °C 29.92in /  1013.1hPa West 5.2mph /  8.4km/h 8mph /  12.9km/h 86% 0.00in /  0mm 0 W/m2
01:19 62 °F /  16.7 °C 57.6 °F /  14.2 °C 29.92in /  1013.1hPa West 4.5mph /  7.2km/h 8mph /  12.9km/h 86% 0.00in /  0mm 0 W/m2
01:24 62.1 °F /  16.7 °C 57.7 °F /  14.3 °C 29.92in /  1013.1hPa West 4mph /  6.4km/h 8mph /  12.9km/h 86% 0.00in /  0mm 0 W/m2
01:29 62.1 °F /  16.7 °C 57.7 °F /  14.3 °C 29.92in /  1013.1hPa West 3.4mph /  5.5km/h 6mph /  9.7km/h 86% 0.00in /  0mm 0 W/m2
01:34 62.1 °F /  16.7 °C 57.7 °F /  14.3 °C 29.92in /  1013.1hPa West 3.2mph /  5.1km/h 7mph /  11.3km/h 86% 0.00in /  0mm 0 W/m2
01:39 62.1 °F /  16.7 °C 57.7 °F /  14.3 °C 29.91in /  1012.8hPa West 2.2mph /  3.5km/h 7mph /  11.3km/h 86% 0.00in /  0mm 0 W/m2
01:44 62.1 °F /  16.7 °C 57.7 °F /  14.3 °C 29.92in /  1013.1hPa West 3.5mph /  5.6km/h 7mph /  11.3km/h 86.1% 0.00in /  0mm 0 W/m2
01:49 62.1 °F /  16.7 °C 58.1 °F /  14.5 °C 29.92in /  1013.1hPa West 1.9mph /  3.1km/h 5mph /  8km/h 87% 0.00in /  0mm 0 W/m2
01:54 62.1 °F /  16.7 °C 58.1 °F /  14.5 °C 29.91in /  1012.8hPa West 3mph /  4.8km/h 6mph /  9.7km/h 87% 0.00in /  0mm 0 W/m2
01:59 62.1 °F /  16.7 °C 58.1 °F /  14.5 °C 29.91in /  1012.8hPa West 2.6mph /  4.2km/h 7mph /  11.3km/h 87% 0.00in /  0mm 0 W/m2
02:04 62.1 °F /  16.7 °C 58.1 °F /  14.5 °C 29.91in /  1012.8hPa West 2.3mph /  3.7km/h 5mph /  8km/h 87% 0.00in /  0mm 0 W/m2
02:09 62.1 °F /  16.7 °C 58.1 °F /  14.5 °C 29.91in /  1012.8hPa West 2.8mph /  4.5km/h 5mph /  8km/h 87% 0.00in /  0mm 0 W/m2
02:14 62.1 °F /  16.7 °C 58.1 °F /  14.5 °C 29.91in /  1012.8hPa WNW 5.4mph /  8.7km/h 8mph /  12.9km/h 87% 0.00in /  0mm 0 W/m2
02:19 62.1 °F /  16.7 °C 58.1 °F /  14.5 °C 29.91in /  1012.8hPa West 3.4mph /  5.5km/h 6mph /  9.7km/h 87% 0.00in /  0mm 0 W/m2
02:24 62.1 °F /  16.7 °C 58.2 °F /  14.6 °C 29.91in /  1012.8hPa West 3.9mph /  6.3km/h 8mph /  12.9km/h 87% 0.00in /  0mm 0 W/m2
02:29 62.2 °F /  16.8 °C 58.2 °F /  14.6 °C 29.91in /  1012.8hPa West 4.5mph /  7.2km/h 9mph /  14.5km/h 87% 0.00in /  0mm 0 W/m2
02:34 62.2 °F /  16.8 °C 58.5 °F /  14.7 °C 29.91in /  1012.8hPa WNW 4.3mph /  6.9km/h 10mph /  16.1km/h 87.6% 0.00in /  0mm 0 W/m2
02:39 62.1 °F /  16.7 °C 58.5 °F /  14.7 °C 29.91in /  1012.8hPa West 3.5mph /  5.6km/h 6mph /  9.7km/h 88% 0.01in /  0.25mm 0 W/m2
02:44 62.1 °F /  16.7 °C 58.6 °F /  14.8 °C 29.91in /  1012.8hPa WNW 3.2mph /  5.1km/h 7mph /  11.3km/h 88.3% 0.02in /  0.51mm 0 W/m2
02:49 61.9 °F /  16.6 °C 58.6 °F /  14.8 °C 29.91in /  1012.8hPa WNW 3.4mph /  5.5km/h 8mph /  12.9km/h 89% 0.02in /  0.51mm 0 W/m2
02:54 61.7 °F /  16.5 °C 58.5 °F /  14.7 °C 29.91in /  1012.8hPa West 3.9mph /  6.3km/h 6mph /  9.7km/h 89% 0.02in /  0.51mm 0 W/m2
02:59 61.5 °F /  16.4 °C 58.6 °F /  14.8 °C 29.91in /  1012.8hPa West 1.8mph /  2.9km/h 6mph /  9.7km/h 89.9% 0.02in /  0.51mm 0 W/m2
03:04 61.5 °F /  16.4 °C 58.6 °F /  14.8 °C 29.91in /  1012.8hPa West 2.2mph /  3.5km/h 5mph /  8km/h 90% 0.02in /  0.51mm 0 W/m2
03:09 61.5 °F /  16.4 °C 58.6 °F /  14.8 °C 29.91in /  1012.8hPa West 3.2mph /  5.1km/h 6mph /  9.7km/h 90.3% 0.02in /  0.51mm 0 W/m2
03:14 61.4 °F /  16.3 °C 58.7 °F /  14.8 °C 29.91in /  1012.8hPa WNW 2.5mph /  4km/h 5mph /  8km/h 91% 0.02in /  0.51mm 0 W/m2
03:19 61.3 °F /  16.3 °C 58.6 °F /  14.8 °C 29.91in /  1012.8hPa WNW 1.3mph /  2.1km/h 4mph /  6.4km/h 91% 0.02in /  0.51mm 0 W/m2
03:24 61.3 °F /  16.3 °C 58.6 °F /  14.8 °C 29.91in /  1012.8hPa WNW 1.7mph /  2.7km/h 4mph /  6.4km/h 91% 0.02in /  0.51mm 0 W/m2
03:29 61.3 °F /  16.3 °C 58.6 °F /  14.8 °C 29.91in /  1012.8hPa WNW 1.3mph /  2.1km/h 3mph /  4.8km/h 91% 0.02in /  0.51mm 0 W/m2
03:34 61.3 °F /  16.3 °C 58.6 °F /  14.8 °C 29.92in /  1013.1hPa WNW 0.9mph /  1.4km/h 3mph /  4.8km/h 91% 0.02in /  0.51mm 0 W/m2
03:39 61.3 °F /  16.3 °C 58.9 °F /  14.9 °C 29.92in /  1013.1hPa WNW 1mph /  1.6km/h 4mph /  6.4km/h 91.7% 0.01in /  0.25mm 0 W/m2
03:44 61.2 °F /  16.2 °C 58.9 °F /  14.9 °C 29.92in /  1013.1hPa WNW 1.6mph /  2.6km/h 5mph /  8km/h 92% 0.00in /  0mm 0 W/m2
03:49 61.2 °F /  16.2 °C 58.8 °F /  14.9 °C 29.92in /  1013.1hPa Calm   2mph /  3.2km/h 92% 0.00in /  0mm 0 W/m2
03:54 61.3 °F /  16.3 °C 59 °F /  15 °C 29.92in /  1013.1hPa Calm     92% 0.00in /  0mm 0 W/m2
03:59 61.3 °F /  16.3 °C 58.9 °F /  14.9 °C 29.91in /  1012.8hPa WNW 0.9mph /  1.4km/h 3mph /  4.8km/h 92% 0.00in /  0mm 0 W/m2
04:04 61.2 °F /  16.2 °C 58.8 °F /  14.9 °C 29.91in /  1012.8hPa WNW 0.6mph /  1km/h 4mph /  6.4km/h 92% 0.00in /  0mm 0 W/m2
04:09 61.3 °F /  16.3 °C 58.9 °F /  14.9 °C 29.91in /  1012.8hPa WNW 0.9mph /  1.4km/h 4mph /  6.4km/h 92% 0.00in /  0mm 0 W/m2
04:14 61.2 °F /  16.2 °C 58.8 °F /  14.9 °C 29.91in /  1012.8hPa West 2.8mph /  4.5km/h 5mph /  8km/h 92% 0.00in /  0mm 0 W/m2
04:19 61.2 °F /  16.2 °C 58.8 °F /  14.9 °C 29.91in /  1012.8hPa West 3mph /  4.8km/h 6mph /  9.7km/h 92% 0.00in /  0mm 0 W/m2
04:24 61.2 °F /  16.2 °C 59 °F /  15 °C 29.91in /  1012.8hPa West 0.5mph /  0.8km/h 4mph /  6.4km/h 92.5% 0.00in /  0mm 0 W/m2
04:29 61.2 °F /  16.2 °C 59.2 °F /  15.1 °C 29.92in /  1013.1hPa West 1mph /  1.6km/h 4mph /  6.4km/h 93% 0.00in /  0mm 0 W/m2
04:34 61.1 °F /  16.2 °C 59.1 °F /  15.1 °C 29.92in /  1013.1hPa West 1.8mph /  2.9km/h 4mph /  6.4km/h 93% 0.00in /  0mm 0 W/m2
04:39 60.9 °F /  16.1 °C 58.9 °F /  14.9 °C 29.92in /  1013.1hPa West 1.2mph /  1.9km/h 4mph /  6.4km/h 93% 0.00in /  0mm 0 W/m2
04:44 60.8 °F /  16 °C 58.8 °F /  14.9 °C 29.92in /  1013.1hPa West 1.7mph /  2.7km/h 4mph /  6.4km/h 93% 0.00in /  0mm 0 W/m2
04:49 60.8 °F /  16 °C 58.8 °F /  14.9 °C 29.91in /  1012.8hPa West 1.2mph /  1.9km/h 4mph /  6.4km/h 93% 0.00in /  0mm 0 W/m2
04:54 60.8 °F /  16 °C 58.8 °F /  14.9 °C 29.92in /  1013.1hPa West 0.5mph /  0.8km/h 2mph /  3.2km/h 93% 0.00in /  0mm 0 W/m2
04:59 60.8 °F /  16 °C 58.8 °F /  14.9 °C 29.92in /  1013.1hPa West 0.4mph /  0.6km/h 2mph /  3.2km/h 93% 0.00in /  0mm 0 W/m2
05:04 60.8 °F /  16 °C 58.8 °F /  14.9 °C 29.92in /  1013.1hPa West 0.8mph /  1.3km/h 4mph /  6.4km/h 93% 0.00in /  0mm 0 W/m2
05:09 60.8 °F /  16 °C 58.8 °F /  14.9 °C 29.92in /  1013.1hPa West 1.4mph /  2.3km/h 4mph /  6.4km/h 93% 0.00in /  0mm 0 W/m2
05:14 60.8 °F /  16 °C 58.8 °F /  14.9 °C 29.93in /  1013.4hPa West 1.7mph /  2.7km/h 4mph /  6.4km/h 93% 0.00in /  0mm 5 W/m2
05:19 60.6 °F /  15.9 °C 58.6 °F /  14.8 °C 29.93in /  1013.4hPa West 1.6mph /  2.6km/h 5mph /  8km/h 93% 0.00in /  0mm 7 W/m2
05:24 60.6 °F /  15.9 °C 58.6 °F /  14.8 °C 29.93in /  1013.4hPa West 1.5mph /  2.4km/h 6mph /  9.7km/h 93% 0.00in /  0mm 7 W/m2
05:29 60.6 °F /  15.9 °C 58.6 °F /  14.8 °C 29.93in /  1013.4hPa West 1.7mph /  2.7km/h 6mph /  9.7km/h 93% 0.00in /  0mm 9 W/m2
05:34 60.6 °F /  15.9 °C 58.6 °F /  14.8 °C 29.93in /  1013.4hPa West 2mph /  3.2km/h 5mph /  8km/h 93% 0.00in /  0mm 9 W/m2
05:39 60.6 °F /  15.9 °C 58.6 °F /  14.8 °C 29.93in /  1013.4hPa West 1.9mph /  3.1km/h 5mph /  8km/h 93% 0.00in /  0mm 9 W/m2
05:44 60.6 °F /  15.9 °C 58.6 °F /  14.8 °C 29.93in /  1013.4hPa West 1.3mph /  2.1km/h 4mph /  6.4km/h 93% 0.00in /  0mm 9 W/m2
05:49 60.6 °F /  15.9 °C 58.6 °F /  14.8 °C 29.93in /  1013.4hPa West 1.8mph /  2.9km/h 5mph /  8km/h 93% 0.00in /  0mm 11 W/m2
05:54 60.4 °F /  15.8 °C 58.5 °F /  14.7 °C 29.93in /  1013.4hPa West 2.3mph /  3.7km/h 5mph /  8km/h 93% 0.00in /  0mm 11 W/m2
05:59 60.4 °F /  15.8 °C 58.5 °F /  14.7 °C 29.94in /  1013.8hPa West 3mph /  4.8km/h 6mph /  9.7km/h 93% 0.00in /  0mm 21 W/m2
06:04 60.4 °F /  15.8 °C 58.5 °F /  14.7 °C 29.94in /  1013.8hPa West 3.5mph /  5.6km/h 7mph /  11.3km/h 93% 0.00in /  0mm 25 W/m2
06:09 60.6 °F /  15.9 °C 58.6 °F /  14.8 °C 29.94in /  1013.8hPa WSW 2.3mph /  3.7km/h 7mph /  11.3km/h 93% 0.00in /  0mm 28 W/m2
06:14 60.6 °F /  15.9 °C 58.6 °F /  14.8 °C 29.94in /  1013.8hPa WSW 1.2mph /  1.9km/h 5mph /  8km/h 93% 0.00in /  0mm 28 W/m2
06:19 60.6 °F /  15.9 °C 58.6 °F /  14.8 °C 29.94in /  1013.8hPa West 4.2mph /  6.8km/h 8mph /  12.9km/h 93% 0.00in /  0mm 30 W/m2
06:24 60.6 °F /  15.9 °C 58.6 °F /  14.8 °C 29.95in /  1014.1hPa West 3.7mph /  6km/h 8mph /  12.9km/h 93% 0.00in /  0mm 35 W/m2
06:29 60.4 °F /  15.8 °C 58.5 °F /  14.7 °C 29.95in /  1014.1hPa West 3.3mph /  5.3km/h 7mph /  11.3km/h 93% 0.00in /  0mm 35 W/m2
06:34 60.4 °F /  15.8 °C 58.5 °F /  14.7 °C 29.95in /  1014.1hPa West 2.7mph /  4.3km/h 7mph /  11.3km/h 93% 0.00in /  0mm 42 W/m2
06:39 60.3 °F /  15.7 °C 58.3 °F /  14.6 °C 29.95in /  1014.1hPa West 2.8mph /  4.5km/h 7mph /  11.3km/h 93% 0.00in /  0mm 42 W/m2
06:44 60.3 °F /  15.7 °C 58.3 °F /  14.6 °C 29.95in /  1014.1hPa West 0.7mph /  1.1km/h 4mph /  6.4km/h 93% 0.00in /  0mm 53 W/m2
06:49 60.3 °F /  15.7 °C 58.3 °F /  14.6 °C 29.95in /  1014.1hPa West 2.2mph /  3.5km/h 5mph /  8km/h 93% 0.00in /  0mm 62 W/m2
06:54 60.3 °F /  15.7 °C 58.3 °F /  14.6 °C 29.95in /  1014.1hPa West 1.2mph /  1.9km/h 5mph /  8km/h 93% 0.00in /  0mm 72 W/m2
06:59 60.3 °F /  15.7 °C 58.3 °F /  14.6 °C 29.95in /  1014.1hPa West 0.9mph /  1.4km/h 4mph /  6.4km/h 93% 0.00in /  0mm 93 W/m2
07:04 60.3 °F /  15.7 °C 58.4 °F /  14.7 °C 29.95in /  1014.1hPa West 2.2mph /  3.5km/h 5mph /  8km/h 93% 0.00in /  0mm 102 W/m2
07:09 60.4 °F /  15.8 °C 58.5 °F /  14.7 °C 29.95in /  1014.1hPa West 2.1mph /  3.4km/h 4mph /  6.4km/h 93% 0.00in /  0mm 123 W/m2
07:14 60.6 °F /  15.9 °C 58.6 °F /  14.8 °C 29.96in /  1014.4hPa West 0.8mph /  1.3km/h 4mph /  6.4km/h 93% 0.00in /  0mm 142 W/m2
07:19 60.7 °F /  15.9 °C 58.7 °F /  14.8 °C 29.96in /  1014.4hPa West 1mph /  1.6km/h 3mph /  4.8km/h 93% 0.00in /  0mm 142 W/m2
07:24 60.8 °F /  16 °C 58.8 °F /  14.9 °C 29.96in /  1014.4hPa West 0.7mph /  1.1km/h 3mph /  4.8km/h 93% 0.00in /  0mm 162 W/m2
07:29 60.8 °F /  16 °C 58.8 °F /  14.9 °C 29.96in /  1014.4hPa West 1.1mph /  1.8km/h 4mph /  6.4km/h 93% 0.00in /  0mm 236 W/m2
07:34 61.2 °F /  16.2 °C 59.2 °F /  15.1 °C 29.96in /  1014.4hPa West 1.8mph /  2.9km/h 4mph /  6.4km/h 93% 0.00in /  0mm 236 W/m2
07:39 61.3 °F /  16.3 °C 59.3 °F /  15.2 °C 29.96in /  1014.4hPa West 2.4mph /  3.9km/h 7mph /  11.3km/h 93% 0.00in /  0mm 320 W/m2
07:44 61.6 °F /  16.4 °C 59.6 °F /  15.3 °C 29.96in /  1014.4hPa West 4mph /  6.4km/h 8mph /  12.9km/h 93% 0.00in /  0mm 320 W/m2
07:49 61.8 °F /  16.6 °C 59.6 °F /  15.3 °C 29.96in /  1014.4hPa WNW 3.3mph /  5.3km/h 9mph /  14.5km/h 92.5% 0.00in /  0mm 327 W/m2
07:54 62.1 °F /  16.7 °C 59.7 °F /  15.4 °C 29.97in /  1014.8hPa WNW 3.3mph /  5.3km/h 9mph /  14.5km/h 92% 0.00in /  0mm 200 W/m2
07:59 62.2 °F /  16.8 °C 59.8 °F /  15.4 °C 29.97in /  1014.8hPa WNW 3.2mph /  5.1km/h 10mph /  16.1km/h 91.9% 0.00in /  0mm 160 W/m2
08:04 62.1 °F /  16.7 °C 59.4 °F /  15.2 °C 29.96in /  1014.4hPa NNW 5.7mph /  9.2km/h 9mph /  14.5km/h 90.7% 0.00in /  0mm 338 W/m2
08:09 62.2 °F /  16.8 °C 58.9 °F /  14.9 °C 29.97in /  1014.8hPa NW 5mph /  8km/h 9mph /  14.5km/h 89% 0.00in /  0mm 338 W/m2
08:14 62.6 °F /  17 °C 58.7 °F /  14.8 °C 29.96in /  1014.4hPa WNW 2.9mph /  4.7km/h 9mph /  14.5km/h 87.2% 0.00in /  0mm 311 W/m2
08:19 63 °F /  17.2 °C 58.5 °F /  14.7 °C 29.97in /  1014.8hPa NW 4.3mph /  6.9km/h 7mph /  11.3km/h 85.3% 0.00in /  0mm 330 W/m2
08:24 63.3 °F /  17.4 °C 58.3 °F /  14.6 °C 29.97in /  1014.8hPa NW 2.5mph /  4km/h 7mph /  11.3km/h 83.3% 0.00in /  0mm 345 W/m2
08:29 63.7 °F /  17.6 °C 58 °F /  14.4 °C 29.97in /  1014.8hPa NW 5mph /  8km/h 9mph /  14.5km/h 81.7% 0.00in /  0mm 359 W/m2
08:34 63.9 °F /  17.7 °C 57.7 °F /  14.3 °C 29.97in /  1014.8hPa NW 3.6mph /  5.8km/h 7mph /  11.3km/h 80.4% 0.00in /  0mm 374 W/m2
08:39 64.4 °F /  18 °C 57.6 °F /  14.2 °C 29.97in /  1014.8hPa NW 3.1mph /  5km/h 7mph /  11.3km/h 78.6% 0.00in /  0mm 399 W/m2
08:44 64.9 °F /  18.3 °C 57.6 °F /  14.2 °C 29.97in /  1014.8hPa NNW 2.8mph /  4.5km/h 8mph /  12.9km/h 77.1% 0.00in /  0mm 424 W/m2
08:49 65.1 °F /  18.4 °C 57.1 °F /  13.9 °C 29.97in /  1014.8hPa NW 5.6mph /  9km/h 9mph /  14.5km/h 75.4% 0.00in /  0mm 431 W/m2
08:54 65.1 °F /  18.4 °C 56.9 °F /  13.8 °C 29.97in /  1014.8hPa NW 3.6mph /  5.8km/h 9mph /  14.5km/h 74.9% 0.00in /  0mm 438 W/m2
08:59 65.6 °F /  18.7 °C 57.1 °F /  13.9 °C 29.97in /  1014.8hPa NW 4.6mph /  7.4km/h 10mph /  16.1km/h 73.9% 0.00in /  0mm 448 W/m2
09:04 65.8 °F /  18.8 °C 56.9 °F /  13.8 °C 29.97in /  1014.8hPa NW 4.7mph /  7.6km/h 10mph /  16.1km/h 72.7% 0.00in /  0mm 462 W/m2
09:09 66.1 °F /  18.9 °C 56.7 °F /  13.7 °C 29.97in /  1014.8hPa NW 4.5mph /  7.2km/h 11mph /  17.7km/h 71.8% 0.00in /  0mm 483 W/m2
09:14 66.3 °F /  19.1 °C 56.3 °F /  13.5 °C 29.98in /  1015.1hPa North 4.8mph /  7.7km/h 10mph /  16.1km/h 70.4% 0.00in /  0mm 506 W/m2
09:19 66.2 °F /  19 °C 56.2 °F /  13.4 °C 29.97in /  1014.8hPa NNW 5.3mph /  8.5km/h 10mph /  16.1km/h 70.2% 0.00in /  0mm 526 W/m2
09:24 66.2 °F /  19 °C 55.8 °F /  13.2 °C 29.97in /  1014.8hPa NW 6.7mph /  10.8km/h 12mph /  19.3km/h 69% 0.01in /  0.25mm 571 W/m2
09:29 66.1 °F /  18.9 °C 55.8 °F /  13.2 °C 29.97in /  1014.8hPa NNW 5.6mph /  9km/h 10mph /  16.1km/h 69.3% 0.01in /  0.25mm 570 W/m2
09:34 66.5 °F /  19.2 °C 56.2 °F /  13.4 °C 29.97in /  1014.8hPa North 3.2mph /  5.1km/h 8mph /  12.9km/h 69.3% 0.01in /  0.25mm 570 W/m2
09:39 67.1 °F /  19.5 °C 56.3 °F /  13.5 °C 29.97in /  1014.8hPa NNW 6.3mph /  10.1km/h 12mph /  19.3km/h 68.2% 0.01in /  0.25mm 591 W/m2
09:44 67.3 °F /  19.6 °C 56.1 °F /  13.4 °C 29.98in /  1015.1hPa NNW 4.4mph /  7.1km/h 12mph /  19.3km/h 67.4% 0.01in /  0.25mm 591 W/m2
09:49 67.2 °F /  19.6 °C 55.7 °F /  13.2 °C 29.98in /  1015.1hPa NNW 5.3mph /  8.5km/h 10mph /  16.1km/h 66.6% 0.01in /  0.25mm 682 W/m2
09:54 67.5 °F /  19.7 °C 55.9 °F /  13.3 °C 29.98in /  1015.1hPa NNW 5.9mph /  9.5km/h 13mph /  20.9km/h 66.5% 0.01in /  0.25mm 698 W/m2
09:59 67.1 °F /  19.5 °C 55.4 °F /  13 °C 29.98in /  1015.1hPa NNW 6mph /  9.7km/h 11mph /  17.7km/h 66.1% 0.01in /  0.25mm 656 W/m2
10:04 67.3 °F /  19.6 °C 55.6 °F /  13.1 °C 29.98in /  1015.1hPa NNW 5.5mph /  8.9km/h 10mph /  16.1km/h 66% 0.01in /  0.25mm 645 W/m2
10:09 67.6 °F /  19.8 °C 55.7 °F /  13.2 °C 29.98in /  1015.1hPa NNW 7.1mph /  11.4km/h 12mph /  19.3km/h 65.7% 0.01in /  0.25mm 649 W/m2
10:14 67.9 °F /  19.9 °C 55.5 °F /  13.1 °C 29.98in /  1015.1hPa North 4.8mph /  7.7km/h 12mph /  19.3km/h 64.5% 0.01in /  0.25mm 700 W/m2
10:19 68.3 °F /  20.2 °C 55.8 °F /  13.2 °C 29.98in /  1015.1hPa NNW 5.1mph /  8.2km/h 11mph /  17.7km/h 64.1% 0.01in /  0.25mm 814 W/m2
10:24 68.6 °F /  20.3 °C 56.3 °F /  13.5 °C 29.98in /  1015.1hPa NNW 6.1mph /  9.8km/h 13mph /  20.9km/h 64.7% 0.01in /  0.25mm 814 W/m2
10:29 67.9 °F /  19.9 °C 55.7 °F /  13.2 °C 29.98in /  1015.1hPa NW 4.7mph /  7.6km/h 13mph /  20.9km/h 64.9% 0.00in /  0mm 209 W/m2
10:34 67.9 °F /  19.9 °C 56.2 °F /  13.4 °C 29.98in /  1015.1hPa NNW 5.5mph /  8.9km/h 10mph /  16.1km/h 66% 0.00in /  0mm 758 W/m2
10:39 68.6 °F /  20.3 °C 56.5 °F /  13.6 °C 29.98in /  1015.1hPa NNW 5.5mph /  8.9km/h 11mph /  17.7km/h 65.3% 0.00in /  0mm 812 W/m2
10:44 68.7 °F /  20.4 °C 56.5 °F /  13.6 °C 29.98in /  1015.1hPa WNW 5.8mph /  9.3km/h 10mph /  16.1km/h 65% 0.00in /  0mm 789 W/m2
10:49 68.5 °F /  20.3 °C 56.9 °F /  13.8 °C 29.98in /  1015.1hPa NW 5.6mph /  9km/h 11mph /  17.7km/h 66.6% 0.00in /  0mm 763 W/m2
10:54 69.4 °F /  20.8 °C 57.7 °F /  14.3 °C 29.98in /  1015.1hPa NNW 4.3mph /  6.9km/h 11mph /  17.7km/h 66.3% 0.00in /  0mm 865 W/m2
10:59 69.4 °F /  20.8 °C 57.4 °F /  14.1 °C 29.98in /  1015.1hPa NNW 5.3mph /  8.5km/h 9mph /  14.5km/h 65.7% 0.00in /  0mm 865 W/m2
11:04 69.2 °F /  20.7 °C 57.6 °F /  14.2 °C 29.99in /  1015.5hPa North 7.4mph /  11.9km/h 13mph /  20.9km/h 66.5% 0.00in /  0mm 376 W/m2
11:09 69 °F /  20.6 °C 57.9 °F /  14.4 °C 29.99in /  1015.5hPa NW 5.7mph /  9.2km/h 11mph /  17.7km/h 67.7% 0.00in /  0mm 376 W/m2
11:14 69.1 °F /  20.6 °C 57.8 °F /  14.3 °C 29.99in /  1015.5hPa NW 4.9mph /  7.9km/h 8mph /  12.9km/h 67.3% 0.00in /  0mm 990 W/m2
11:19 69.6 °F /  20.9 °C 57.9 °F /  14.4 °C 29.99in /  1015.5hPa NW 5.7mph /  9.2km/h 10mph /  16.1km/h 66.6% 0.00in /  0mm 997 W/m2
11:24 69.3 °F /  20.7 °C 57.8 °F /  14.3 °C 29.99in /  1015.5hPa North 6mph /  9.7km/h 12mph /  19.3km/h 67% 0.00in /  0mm 997 W/m2
11:29 69.6 °F /  20.9 °C 58.3 °F /  14.6 °C 29.99in /  1015.5hPa NW 4.1mph /  6.6km/h 9mph /  14.5km/h 67.4% 0.00in /  0mm 991 W/m2
11:34 70.2 °F /  21.2 °C 58.4 °F /  14.7 °C 29.99in /  1015.5hPa WNW 5mph /  8km/h 12mph /  19.3km/h 66.3% 0.00in /  0mm 508 W/m2
11:39 69.5 °F /  20.8 °C 57.9 °F /  14.4 °C 29.99in /  1015.5hPa WNW 4.7mph /  7.6km/h 10mph /  16.1km/h 66.7% 0.00in /  0mm 816 W/m2
11:44 69.5 °F /  20.8 °C 58.3 °F /  14.6 °C 29.99in /  1015.5hPa NW 5mph /  8km/h 10mph /  16.1km/h 67.5% 0.00in /  0mm 893 W/m2
11:49 70.1 °F /  21.2 °C 58.3 °F /  14.6 °C 29.99in /  1015.5hPa NNW 6.1mph /  9.8km/h 11mph /  17.7km/h 66.1% 0.00in /  0mm 923 W/m2
11:54 69.8 °F /  21 °C 57.7 °F /  14.3 °C 29.99in /  1015.5hPa NW 4.7mph /  7.6km/h 11mph /  17.7km/h 65.3% 0.00in /  0mm 923 W/m2
11:59 69.4 °F /  20.8 °C 57.8 °F /  14.3 °C 29.99in /  1015.5hPa WNW 2.9mph /  4.7km/h 8mph /  12.9km/h 66.7% 0.00in /  0mm 327 W/m2
12:04 69.7 °F /  20.9 °C 57.7 °F /  14.3 °C 29.99in /  1015.5hPa NW 3.9mph /  6.3km/h 10mph /  16.1km/h 65.5% 0.00in /  0mm 1014 W/m2
12:09 70.1 °F /  21.2 °C 57.8 °F /  14.3 °C 29.99in /  1015.5hPa WNW 6.4mph /  10.3km/h 12mph /  19.3km/h 65% 0.00in /  0mm 422 W/m2
12:14 70.1 °F /  21.2 °C 57.9 °F /  14.4 °C 30.00in /  1015.8hPa NNW 5.7mph /  9.2km/h 9mph /  14.5km/h 65.1% 0.00in /  0mm 223 W/m2
12:19 69.9 °F /  21.1 °C 57.8 °F /  14.3 °C 30.00in /  1015.8hPa NW 6.2mph /  10km/h 10mph /  16.1km/h 65.3% 0.00in /  0mm 898 W/m2
12:24 70.5 °F /  21.4 °C 58.2 °F /  14.6 °C 30.00in /  1015.8hPa NW 5.2mph /  8.4km/h 10mph /  16.1km/h 65% 0.00in /  0mm 940 W/m2
12:29 71.3 °F /  21.8 °C 58.5 °F /  14.7 °C 29.99in /  1015.5hPa NW 4.4mph /  7.1km/h 10mph /  16.1km/h 64% 0.00in /  0mm 940 W/m2
12:34 71.4 °F /  21.9 °C 57.8 °F /  14.3 °C 30.00in /  1015.8hPa NW 6mph /  9.7km/h 15mph /  24.1km/h 62.1% 0.00in /  0mm 1002 W/m2
12:39 71.2 °F /  21.8 °C 56.7 °F /  13.7 °C 30.00in /  1015.8hPa NW 5.6mph /  9km/h 12mph /  19.3km/h 60.4% 0.00in /  0mm 383 W/m2
12:44 71.2 °F /  21.8 °C 57.1 °F /  13.9 °C 30.00in /  1015.8hPa NNW 4.8mph /  7.7km/h 11mph /  17.7km/h 61.3% 0.00in /  0mm 383 W/m2
12:49 70.8 °F /  21.6 °C 57.3 °F /  14.1 °C 30.00in /  1015.8hPa NW 9.1mph /  14.6km/h 15mph /  24.1km/h 62.3% 0.00in /  0mm 313 W/m2
12:54 70.4 °F /  21.3 °C 57.2 °F /  14 °C 30.00in /  1015.8hPa NNW 6.2mph /  10km/h 15mph /  24.1km/h 62.8% 0.00in /  0mm 237 W/m2
12:59 70.9 °F /  21.6 °C 57.5 °F /  14.2 °C 30.00in /  1015.8hPa NW 6.2mph /  10km/h 10mph /  16.1km/h 62.7% 0.00in /  0mm 933 W/m2
13:04 71 °F /  21.7 °C 57.1 °F /  13.9 °C 30.00in /  1015.8hPa WNW 7.5mph /  12.1km/h 12mph /  19.3km/h 61.7% 0.00in /  0mm 933 W/m2
13:09 71.8 °F /  22.1 °C 56.9 °F /  13.8 °C 30.00in /  1015.8hPa WNW 5.3mph /  8.5km/h 11mph /  17.7km/h 59.4% 0.00in /  0mm 918 W/m2
13:14 72.4 °F /  22.4 °C 56.9 °F /  13.8 °C 30.00in /  1015.8hPa WNW 3.3mph /  5.3km/h 11mph /  17.7km/h 58.2% 0.00in /  0mm 954 W/m2
13:19 73.3 °F /  22.9 °C 56.9 °F /  13.8 °C 30.00in /  1015.8hPa WNW 3.2mph /  5.1km/h 7mph /  11.3km/h 56.5% 0.00in /  0mm 925 W/m2
13:24 74.1 °F /  23.4 °C 56.2 °F /  13.4 °C 30.00in /  1015.8hPa NW 6.4mph /  10.3km/h 12mph /  19.3km/h 53.5% 0.00in /  0mm 979 W/m2
13:29 73.2 °F /  22.9 °C 55.7 °F /  13.2 °C 30.00in /  1015.8hPa NW 5.9mph /  9.5km/h 11mph /  17.7km/h 54.2% 0.00in /  0mm 360 W/m2
13:34 72.9 °F /  22.7 °C 56.1 °F /  13.4 °C 30.00in /  1015.8hPa WNW 6.2mph /  10km/h 13mph /  20.9km/h 55.6% 0.00in /  0mm 949 W/m2
13:39 73.8 °F /  23.2 °C 56.2 °F /  13.4 °C 30.00in /  1015.8hPa NNW 5.3mph /  8.5km/h 11mph /  17.7km/h 54% 0.00in /  0mm 965 W/m2
13:44 73.6 °F /  23.1 °C 56.4 °F /  13.6 °C 30.00in /  1015.8hPa West 4.4mph /  7.1km/h 13mph /  20.9km/h 54.9% 0.00in /  0mm 438 W/m2
13:49 74 °F /  23.3 °C 56.8 °F /  13.8 °C 30.00in /  1015.8hPa NNW 5.4mph /  8.7km/h 11mph /  17.7km/h 55.1% 0.00in /  0mm 313 W/m2
13:54 73.2 °F /  22.9 °C 56.6 °F /  13.7 °C 30.00in /  1015.8hPa NW 4.4mph /  7.1km/h 9mph /  14.5km/h 55.9% 0.00in /  0mm 322 W/m2
13:59 73.1 °F /  22.8 °C 56.5 °F /  13.6 °C 30.00in /  1015.8hPa NNW 6.7mph /  10.8km/h 12mph /  19.3km/h 55.9% 0.00in /  0mm 768 W/m2
14:04 73.2 °F /  22.9 °C 55.9 °F /  13.3 °C 30.00in /  1015.8hPa NNW 5.9mph /  9.5km/h 12mph /  19.3km/h 54.6% 0.00in /  0mm 682 W/m2
14:09 73.6 °F /  23.1 °C 55.2 °F /  12.9 °C 30.00in /  1015.8hPa North 7.1mph /  11.4km/h 13mph /  20.9km/h 52.6% 0.00in /  0mm 954 W/m2
14:14 73.9 °F /  23.3 °C 56 °F /  13.3 °C 30.00in /  1015.8hPa NNW 5.9mph /  9.5km/h 12mph /  19.3km/h 53.4% 0.00in /  0mm 932 W/m2
14:19 74.1 °F /  23.4 °C 56.5 °F /  13.6 °C 30.00in /  1015.8hPa NNW 6mph /  9.7km/h 14mph /  22.5km/h 53.9% 0.00in /  0mm 925 W/m2
14:24 74.7 °F /  23.7 °C 56.2 °F /  13.4 °C 30.00in /  1015.8hPa NNW 7.1mph /  11.4km/h 12mph /  19.3km/h 52.4% 0.00in /  0mm 1023 W/m2
14:29 74.6 °F /  23.7 °C 55.7 °F /  13.2 °C 30.00in /  1015.8hPa NW 5.8mph /  9.3km/h 14mph /  22.5km/h 51.7% 0.00in /  0mm 1044 W/m2
14:34 74.2 °F /  23.4 °C 56.6 °F /  13.7 °C 30.00in /  1015.8hPa NNW 5.1mph /  8.2km/h 14mph /  22.5km/h 54.3% 0.00in /  0mm 907 W/m2
14:39 75.1 °F /  23.9 °C 57 °F /  13.9 °C 30.00in /  1015.8hPa NNW 6.2mph /  10km/h 16mph /  25.7km/h 53.5% 0.00in /  0mm 881 W/m2
14:44 75 °F /  23.9 °C 56.7 °F /  13.7 °C 30.01in /  1016.1hPa NNW 7.4mph /  11.9km/h 12mph /  19.3km/h 53% 0.00in /  0mm 967 W/m2
14:49 73.9 °F /  23.3 °C 56.8 °F /  13.8 °C 30.01in /  1016.1hPa NNW 6.6mph /  10.6km/h 13mph /  20.9km/h 55.1% 0.00in /  0mm 967 W/m2
14:54 73.3 °F /  22.9 °C 57 °F /  13.9 °C 30.01in /  1016.1hPa NW 6.8mph /  10.9km/h 13mph /  20.9km/h 56.9% 0.00in /  0mm 271 W/m2
14:59 73 °F /  22.8 °C 56.6 °F /  13.7 °C 30.01in /  1016.1hPa NW 5.9mph /  9.5km/h 14mph /  22.5km/h 56.2% 0.00in /  0mm 272 W/m2
15:04 73.2 °F /  22.9 °C 56.4 °F /  13.6 °C 30.01in /  1016.1hPa NNW 6mph /  9.7km/h 11mph /  17.7km/h 55.7% 0.00in /  0mm 244 W/m2
15:09 72.5 °F /  22.5 °C 56.4 °F /  13.6 °C 30.01in /  1016.1hPa NW 5.9mph /  9.5km/h 10mph /  16.1km/h 56.9% 0.00in /  0mm 332 W/m2
15:14 72.6 °F /  22.6 °C 56.5 °F /  13.6 °C 30.01in /  1016.1hPa NW 5.4mph /  8.7km/h 11mph /  17.7km/h 57% 0.00in /  0mm 332 W/m2
15:19 72.9 °F /  22.7 °C 56.5 °F /  13.6 °C 30.01in /  1016.1hPa North 6.6mph /  10.6km/h 10mph /  16.1km/h 56.3% 0.00in /  0mm 327 W/m2
15:24 72.9 °F /  22.7 °C 56.3 °F /  13.5 °C 30.01in /  1016.1hPa North 5.4mph /  8.7km/h 10mph /  16.1km/h 56.1% 0.00in /  0mm 223 W/m2
15:29 73 °F /  22.8 °C 56.4 °F /  13.6 °C 30.01in /  1016.1hPa NW 7.1mph /  11.4km/h 13mph /  20.9km/h 55.8% 0.00in /  0mm 810 W/m2
15:34 73.5 °F /  23.1 °C 56.8 °F /  13.8 °C 30.01in /  1016.1hPa NNW 5.2mph /  8.4km/h 13mph /  20.9km/h 56.1% 0.00in /  0mm 800 W/m2
15:39 74.1 °F /  23.4 °C 56.7 °F /  13.7 °C 30.01in /  1016.1hPa NW 6.8mph /  10.9km/h 12mph /  19.3km/h 54.6% 0.00in /  0mm 788 W/m2
15:44 74 °F /  23.3 °C 56.3 °F /  13.5 °C 30.01in /  1016.1hPa NW 7.2mph /  11.6km/h 13mph /  20.9km/h 53.8% 0.00in /  0mm 802 W/m2
15:49 74.4 °F /  23.6 °C 56.7 °F /  13.7 °C 30.01in /  1016.1hPa North 7mph /  11.3km/h 13mph /  20.9km/h 54% 0.00in /  0mm 798 W/m2
15:54 74.2 °F /  23.4 °C 56.6 °F /  13.7 °C 30.01in /  1016.1hPa NW 6.4mph /  10.3km/h 15mph /  24.1km/h 54% 0.00in /  0mm 768 W/m2
15:59 74.7 °F /  23.7 °C 56.9 °F /  13.8 °C 30.01in /  1016.1hPa NW 4.1mph /  6.6km/h 15mph /  24.1km/h 54% 0.00in /  0mm 793 W/m2
16:04 75.1 °F /  23.9 °C 57 °F /  13.9 °C 30.01in /  1016.1hPa NW 6.2mph /  10km/h 15mph /  24.1km/h 53.3% 0.00in /  0mm 840 W/m2
16:09 75.1 °F /  23.9 °C 56.7 °F /  13.7 °C 30.01in /  1016.1hPa NW 7.3mph /  11.7km/h 13mph /  20.9km/h 53% 0.00in /  0mm 840 W/m2
16:14 74.9 °F /  23.8 °C 56.3 °F /  13.5 °C 30.01in /  1016.1hPa NW 6.6mph /  10.6km/h 14mph /  22.5km/h 52.4% 0.00in /  0mm 749 W/m2
16:19 74 °F /  23.3 °C 56 °F /  13.3 °C 30.01in /  1016.1hPa NW 6.1mph /  9.8km/h 12mph /  19.3km/h 53.4% 0.00in /  0mm 185 W/m2
16:24 73.9 °F /  23.3 °C 56.5 °F /  13.6 °C 30.01in /  1016.1hPa WNW 4.1mph /  6.6km/h 12mph /  19.3km/h 54.7% 0.00in /  0mm 199 W/m2
16:29 74.4 °F /  23.6 °C 57 °F /  13.9 °C 30.01in /  1016.1hPa NW 3.8mph /  6.1km/h 12mph /  19.3km/h 54.8% 0.00in /  0mm 788 W/m2
16:34 75.1 °F /  23.9 °C 57.3 °F /  14.1 °C 30.01in /  1016.1hPa NNW 7.8mph /  12.6km/h 12mph /  19.3km/h 54% 0.00in /  0mm 793 W/m2
16:39 75.6 °F /  24.2 °C 57.5 °F /  14.2 °C 30.02in /  1016.5hPa NNW 8mph /  12.9km/h 12mph /  19.3km/h 53.6% 0.00in /  0mm 765 W/m2
16:44 75.1 °F /  23.9 °C 56.9 °F /  13.8 °C 30.02in /  1016.5hPa NW 7.3mph /  11.7km/h 12mph /  19.3km/h 53.2% 0.00in /  0mm 765 W/m2
16:49 74.6 °F /  23.7 °C 56.6 °F /  13.7 °C 30.02in /  1016.5hPa NW 7mph /  11.3km/h 12mph /  19.3km/h 53.4% 0.00in /  0mm 737 W/m2
16:54 73.7 °F /  23.2 °C 57 °F /  13.9 °C 30.02in /  1016.5hPa NW 7.2mph /  11.6km/h 15mph /  24.1km/h 56% 0.00in /  0mm 714 W/m2
16:59 74 °F /  23.3 °C 57.5 °F /  14.2 °C 30.02in /  1016.5hPa NW 7.4mph /  11.9km/h 14mph /  22.5km/h 56.3% 0.00in /  0mm 714 W/m2
17:04 74.4 °F /  23.6 °C 57.8 °F /  14.3 °C 30.02in /  1016.5hPa NW 5.3mph /  8.5km/h 14mph /  22.5km/h 56.2% 0.00in /  0mm 661 W/m2
17:09 74.9 °F /  23.8 °C 57.8 °F /  14.3 °C 30.02in /  1016.5hPa NW 7.7mph /  12.4km/h 12mph /  19.3km/h 55.4% 0.00in /  0mm 642 W/m2
17:14 74.7 °F /  23.7 °C 57.8 °F /  14.3 °C 30.02in /  1016.5hPa North 10.8mph /  17.4km/h 15mph /  24.1km/h 55.8% 0.00in /  0mm 612 W/m2
17:19 74.6 °F /  23.7 °C 57.7 °F /  14.3 °C 30.02in /  1016.5hPa NNW 7.5mph /  12.1km/h 15mph /  24.1km/h 55.8% 0.00in /  0mm 596 W/m2
17:24 74.3 °F /  23.5 °C 57.8 °F /  14.3 °C 30.02in /  1016.5hPa NNW 7.5mph /  12.1km/h 12mph /  19.3km/h 56.3% 0.00in /  0mm 568 W/m2
17:29 74.4 °F /  23.6 °C 57.5 °F /  14.2 °C 30.02in /  1016.5hPa NNW 6.4mph /  10.3km/h 11mph /  17.7km/h 55.7% 0.00in /  0mm 561 W/m2
17:34 74.2 °F /  23.4 °C 57.3 °F /  14.1 °C 30.02in /  1016.5hPa North 6.3mph /  10.1km/h 12mph /  19.3km/h 55.8% 0.00in /  0mm 559 W/m2
17:39 73.1 °F /  22.8 °C 56.8 °F /  13.8 °C 30.02in /  1016.5hPa NNW 6.5mph /  10.5km/h 14mph /  22.5km/h 56.8% 0.00in /  0mm 91 W/m2
17:44 72.4 °F /  22.4 °C 56.7 °F /  13.7 °C 30.02in /  1016.5hPa NNW 4.9mph /  7.9km/h 10mph /  16.1km/h 57.9% 0.00in /  0mm 519 W/m2
17:49 72.9 °F /  22.7 °C 56.7 °F /  13.7 °C 30.02in /  1016.5hPa NNW 6.2mph /  10km/h 11mph /  17.7km/h 57.1% 0.00in /  0mm 517 W/m2
17:54 73.2 °F /  22.9 °C 56.8 °F /  13.8 °C 30.02in /  1016.5hPa NW 7.9mph /  12.7km/h 12mph /  19.3km/h 56.4% 0.00in /  0mm 492 W/m2
17:59 73.4 °F /  23 °C 56.8 °F /  13.8 °C 30.02in /  1016.5hPa NW 7.7mph /  12.4km/h 13mph /  20.9km/h 56.2% 0.00in /  0mm 462 W/m2
18:04 73.9 °F /  23.3 °C 57.6 °F /  14.2 °C 30.03in /  1016.8hPa NNW 5.5mph /  8.9km/h 13mph /  20.9km/h 56.8% 0.00in /  0mm 459 W/m2
18:09 74.3 °F /  23.5 °C 57.7 °F /  14.3 °C 30.03in /  1016.8hPa NNW 4.4mph /  7.1km/h 11mph /  17.7km/h 56.2% 0.00in /  0mm 441 W/m2
18:14 74.3 °F /  23.5 °C 57.5 °F /  14.2 °C 30.03in /  1016.8hPa NW 7.2mph /  11.6km/h 15mph /  24.1km/h 55.9% 0.00in /  0mm 427 W/m2
18:19 73.9 °F /  23.3 °C 57.1 °F /  13.9 °C 30.03in /  1016.8hPa NW 5.3mph /  8.5km/h 12mph /  19.3km/h 55.8% 0.00in /  0mm 418 W/m2
18:24 73.7 °F /  23.2 °C 56.5 °F /  13.6 °C 30.03in /  1016.8hPa North 6.3mph /  10.1km/h 13mph /  20.9km/h 55% 0.00in /  0mm 403 W/m2
18:29 72.8 °F /  22.7 °C 56.7 °F /  13.7 °C 30.03in /  1016.8hPa NW 6.9mph /  11.1km/h 12mph /  19.3km/h 57.3% 0.00in /  0mm 410 W/m2
18:34 72.9 °F /  22.7 °C 57 °F /  13.9 °C 30.03in /  1016.8hPa NNW 7.3mph /  11.7km/h 12mph /  19.3km/h 57.7% 0.00in /  0mm 418 W/m2
18:39 73.1 °F /  22.8 °C 57 °F /  13.9 °C 30.03in /  1016.8hPa NW 6.7mph /  10.8km/h 14mph /  22.5km/h 57.2% 0.00in /  0mm 420 W/m2
18:44 73.4 °F /  23 °C 57.3 °F /  14.1 °C 30.04in /  1017.2hPa NNW 6.8mph /  10.9km/h 12mph /  19.3km/h 57.2% 0.00in /  0mm 390 W/m2
18:49 73.3 °F /  22.9 °C 57.6 °F /  14.2 °C 30.04in /  1017.2hPa North 7.3mph /  11.7km/h 15mph /  24.1km/h 58% 0.00in /  0mm 367 W/m2
18:54 72.4 °F /  22.4 °C 57.5 °F /  14.2 °C 30.04in /  1017.2hPa North 7.2mph /  11.6km/h 15mph /  24.1km/h 59.4% 0.00in /  0mm 91 W/m2
18:59 71.9 °F /  22.2 °C 57.5 °F /  14.2 °C 30.05in /  1017.5hPa NNW 5.5mph /  8.9km/h 13mph /  20.9km/h 60.6% 0.00in /  0mm 86 W/m2
19:04 71.7 °F /  22.1 °C 57.5 °F /  14.2 °C 30.05in /  1017.5hPa NNW 4.6mph /  7.4km/h 13mph /  20.9km/h 61% 0.00in /  0mm 320 W/m2
19:09 71.8 °F /  22.1 °C 58 °F /  14.4 °C 30.05in /  1017.5hPa NNW 5.9mph /  9.5km/h 11mph /  17.7km/h 61.8% 0.00in /  0mm 105 W/m2
19:14 71.5 °F /  21.9 °C 58.1 °F /  14.5 °C 30.06in /  1017.8hPa NNW 5.9mph /  9.5km/h 13mph /  20.9km/h 62.8% 0.00in /  0mm 132 W/m2
19:19 71.3 °F /  21.8 °C 58.4 °F /  14.7 °C 30.06in /  1017.8hPa NNW 6.6mph /  10.6km/h 12mph /  19.3km/h 63.7% 0.00in /  0mm 294 W/m2
19:24 71.8 °F /  22.1 °C 58.5 °F /  14.7 °C 30.06in /  1017.8hPa NNW 3mph /  4.8km/h 12mph /  19.3km/h 63% 0.00in /  0mm 262 W/m2
19:29 72.1 °F /  22.3 °C 58.6 °F /  14.8 °C 30.06in /  1017.8hPa North 6.9mph /  11.1km/h 13mph /  20.9km/h 62.5% 0.00in /  0mm 244 W/m2
19:34 71.7 °F /  22.1 °C 58.4 °F /  14.7 °C 30.06in /  1017.8hPa NNW 6.1mph /  9.8km/h 14mph /  22.5km/h 63% 0.00in /  0mm 258 W/m2
19:39 71.9 °F /  22.2 °C 58.6 °F /  14.8 °C 30.06in /  1017.8hPa North 4.9mph /  7.9km/h 12mph /  19.3km/h 63% 0.00in /  0mm 265 W/m2
19:44 71.9 °F /  22.2 °C 58.5 °F /  14.7 °C 30.06in /  1017.8hPa North 5.9mph /  9.5km/h 11mph /  17.7km/h 63% 0.00in /  0mm 250 W/m2
19:49 71.4 °F /  21.9 °C 58.5 °F /  14.7 °C 30.06in /  1017.8hPa North 4.6mph /  7.4km/h 11mph /  17.7km/h 63.7% 0.00in /  0mm 220 W/m2
19:54 71.3 °F /  21.8 °C 58.6 °F /  14.8 °C 30.06in /  1017.8hPa NW 4.8mph /  7.7km/h 12mph /  19.3km/h 64.1% 0.00in /  0mm 146 W/m2
19:59 71 °F /  21.7 °C 58.5 °F /  14.7 °C 30.07in /  1018.2hPa NNW 6.5mph /  10.5km/h 13mph /  20.9km/h 65% 0.00in /  0mm 137 W/m2
20:04 70.3 °F /  21.3 °C 58.1 °F /  14.5 °C 30.07in /  1018.2hPa NNW 6mph /  9.7km/h 12mph /  19.3km/h 65.3% 0.00in /  0mm 116 W/m2
20:09 69.9 °F /  21.1 °C 58 °F /  14.4 °C 30.07in /  1018.2hPa North 5.2mph /  8.4km/h 9mph /  14.5km/h 66% 0.00in /  0mm 114 W/m2
20:14 69.8 °F /  21 °C 57.8 °F /  14.3 °C 30.07in /  1018.2hPa North 4mph /  6.4km/h 9mph /  14.5km/h 66% 0.00in /  0mm 118 W/m2
20:19 70.1 °F /  21.2 °C 58.2 °F /  14.6 °C 30.08in /  1018.5hPa North 4.3mph /  6.9km/h 10mph /  16.1km/h 66% 0.00in /  0mm 107 W/m2
20:24 70.1 °F /  21.2 °C 58.2 °F /  14.6 °C 30.08in /  1018.5hPa North 3.9mph /  6.3km/h 10mph /  16.1km/h 66% 0.00in /  0mm 72 W/m2
20:29 69.5 °F /  20.8 °C 57.8 °F /  14.3 °C 30.08in /  1018.5hPa NNW 2.9mph /  4.7km/h 9mph /  14.5km/h 66.5% 0.00in /  0mm 60 W/m2
20:34 69.4 °F /  20.8 °C 57.9 °F /  14.4 °C 30.08in /  1018.5hPa NNW 4.9mph /  7.9km/h 10mph /  16.1km/h 67% 0.00in /  0mm 44 W/m2
20:39 68.9 °F /  20.5 °C 57.7 °F /  14.3 °C 30.08in /  1018.5hPa NNW 3.8mph /  6.1km/h 9mph /  14.5km/h 67.3% 0.00in /  0mm 47 W/m2
20:44 68.8 °F /  20.4 °C 57.8 °F /  14.3 °C 30.08in /  1018.5hPa NNW 3.9mph /  6.3km/h 9mph /  14.5km/h 68% 0.00in /  0mm 42 W/m2
20:49 68.6 °F /  20.3 °C 57.7 °F /  14.3 °C 30.09in /  1018.8hPa NW 5.6mph /  9km/h 13mph /  20.9km/h 68% 0.00in /  0mm 21 W/m2
20:54 68.5 °F /  20.3 °C 57.6 °F /  14.2 °C 30.09in /  1018.8hPa NNW 3.1mph /  5km/h 7mph /  11.3km/h 68% 0.00in /  0mm 18 W/m2
20:59 68.2 °F /  20.1 °C 57.3 °F /  14.1 °C 30.09in /  1018.8hPa NW 3.4mph /  5.5km/h 8mph /  12.9km/h 68.3% 0.00in /  0mm 16 W/m2
21:04 67.9 °F /  19.9 °C 57.3 °F /  14.1 °C 30.09in /  1018.8hPa NNW 4.4mph /  7.1km/h 8mph /  12.9km/h 69% 0.00in /  0mm 19 W/m2
21:09 67.6 °F /  19.8 °C 57 °F /  13.9 °C 30.09in /  1018.8hPa NW 4.8mph /  7.7km/h 11mph /  17.7km/h 69% 0.00in /  0mm 16 W/m2
21:14 67.2 °F /  19.6 °C 56.7 °F /  13.7 °C 30.09in /  1018.8hPa NW 5.1mph /  8.2km/h 12mph /  19.3km/h 69% 0.00in /  0mm 11 W/m2
21:19 66.8 °F /  19.3 °C 56.4 °F /  13.6 °C 30.10in /  1019.2hPa NNW 5.5mph /  8.9km/h 12mph /  19.3km/h 69% 0.00in /  0mm 5 W/m2
21:24 66.6 °F /  19.2 °C 56.5 °F /  13.6 °C 30.10in /  1019.2hPa NW 3.6mph /  5.8km/h 9mph /  14.5km/h 70% 0.00in /  0mm 0 W/m2
21:29 66.3 °F /  19.1 °C 56.2 °F /  13.4 °C 30.11in /  1019.5hPa WNW 3.3mph /  5.3km/h 9mph /  14.5km/h 70% 0.00in /  0mm 0 W/m2
21:34 66 °F /  18.9 °C 55.9 °F /  13.3 °C 30.10in /  1019.2hPa NW 4.2mph /  6.8km/h 8mph /  12.9km/h 70% 0.00in /  0mm 0 W/m2
21:39 65.7 °F /  18.7 °C 55.8 °F /  13.2 °C 30.11in /  1019.5hPa WNW 2.3mph /  3.7km/h 7mph /  11.3km/h 70.6% 0.00in /  0mm 0 W/m2
21:44 65.4 °F /  18.6 °C 55.7 °F /  13.2 °C 30.11in /  1019.5hPa WNW 2mph /  3.2km/h 5mph /  8km/h 71% 0.00in /  0mm 0 W/m2
21:49 65.1 °F /  18.4 °C 55.5 °F /  13.1 °C 30.12in /  1019.9hPa NW 3.3mph /  5.3km/h 8mph /  12.9km/h 71% 0.00in /  0mm 0 W/m2
21:54 64.8 °F /  18.2 °C 55.3 °F /  12.9 °C 30.12in /  1019.9hPa NW 2mph /  3.2km/h 8mph /  12.9km/h 71% 0.00in /  0mm 0 W/m2
21:59 64.4 °F /  18 °C 55.2 °F /  12.9 °C 30.12in /  1019.9hPa NW 2.6mph /  4.2km/h 4mph /  6.4km/h 72% 0.00in /  0mm 0 W/m2
22:04 64.2 °F /  17.9 °C 55 °F /  12.8 °C 30.12in /  1019.9hPa NW 0.9mph /  1.4km/h 4mph /  6.4km/h 72% 0.00in /  0mm 0 W/m2
22:09 64 °F /  17.8 °C 54.9 °F /  12.7 °C 30.12in /  1019.9hPa NW 1mph /  1.6km/h 4mph /  6.4km/h 72% 0.00in /  0mm 0 W/m2
22:14 63.9 °F /  17.7 °C 54.8 °F /  12.7 °C 30.12in /  1019.9hPa WNW 1.1mph /  1.8km/h 5mph /  8km/h 72.1% 0.00in /  0mm 0 W/m2
22:19 63.8 °F /  17.7 °C 54.9 °F /  12.7 °C 30.12in /  1019.9hPa West 1.8mph /  2.9km/h 5mph /  8km/h 73% 0.00in /  0mm 0 W/m2
22:24 63.6 °F /  17.6 °C 54.8 °F /  12.7 °C 30.13in /  1020.2hPa West 0.3mph /  0.5km/h 3mph /  4.8km/h 73% 0.00in /  0mm 0 W/m2
22:29 63.5 °F /  17.5 °C 54.7 °F /  12.6 °C 30.13in /  1020.2hPa West 0.6mph /  1km/h 3mph /  4.8km/h 73% 0.00in /  0mm 0 W/m2
22:34 63.3 °F /  17.4 °C 54.5 °F /  12.5 °C 30.13in /  1020.2hPa West 1mph /  1.6km/h 4mph /  6.4km/h 73% 0.00in /  0mm 0 W/m2
22:39 63.1 °F /  17.3 °C 54.3 °F /  12.4 °C 30.13in /  1020.2hPa West 1.9mph /  3.1km/h 6mph /  9.7km/h 73% 0.00in /  0mm 0 W/m2
22:44 62.8 °F /  17.1 °C 54.2 °F /  12.3 °C 30.13in /  1020.2hPa West 2.6mph /  4.2km/h 6mph /  9.7km/h 73.7% 0.00in /  0mm 0 W/m2
22:49 62.5 °F /  16.9 °C 54.1 °F /  12.3 °C 30.14in /  1020.5hPa West 2.5mph /  4km/h 6mph /  9.7km/h 74% 0.00in /  0mm 0 W/m2
22:54 62.3 °F /  16.8 °C 53.9 °F /  12.2 °C 30.14in /  1020.5hPa West 3.3mph /  5.3km/h 6mph /  9.7km/h 74% 0.00in /  0mm 0 W/m2
22:59 62.1 °F /  16.7 °C 53.6 °F /  12 °C 30.14in /  1020.5hPa West 2.6mph /  4.2km/h 6mph /  9.7km/h 74% 0.00in /  0mm 0 W/m2
23:04 61.8 °F /  16.6 °C 53.3 °F /  11.8 °C 30.14in /  1020.5hPa West 3.2mph /  5.1km/h 6mph /  9.7km/h 74% 0.00in /  0mm 0 W/m2
23:09 61.6 °F /  16.4 °C 53.5 °F /  11.9 °C 30.14in /  1020.5hPa West 1.7mph /  2.7km/h 6mph /  9.7km/h 74.6% 0.00in /  0mm 0 W/m2
23:14 61.5 °F /  16.4 °C 53.6 °F /  12 °C 30.14in /  1020.5hPa West 1.3mph /  2.1km/h 5mph /  8km/h 75% 0.00in /  0mm 0 W/m2
23:19 61.4 °F /  16.3 °C 53.5 °F /  11.9 °C 30.14in /  1020.5hPa West 0.6mph /  1km/h 2mph /  3.2km/h 75% 0.00in /  0mm 0 W/m2
23:24 61.3 °F /  16.3 °C 53.3 °F /  11.8 °C 30.15in /  1020.9hPa West 0.9mph /  1.4km/h 2mph /  3.2km/h 75% 0.00in /  0mm 0 W/m2
23:29 61.1 °F /  16.2 °C 53.2 °F /  11.8 °C 30.15in /  1020.9hPa West 0.4mph /  0.6km/h 2mph /  3.2km/h 75% 0.00in /  0mm 0 W/m2
23:34 60.9 °F /  16.1 °C 53 °F /  11.7 °C 30.15in /  1020.9hPa West 0.5mph /  0.8km/h 3mph /  4.8km/h 75% 0.00in /  0mm 0 W/m2
23:39 60.8 °F /  16 °C 52.9 °F /  11.6 °C 30.15in /  1020.9hPa WNW 1.9mph /  3.1km/h 5mph /  8km/h 75% 0.00in /  0mm 0 W/m2
23:44 60.8 °F /  16 °C 52.9 °F /  11.6 °C 30.15in /  1020.9hPa WNW 0.6mph /  1km/h 3mph /  4.8km/h 75.2% 0.00in /  0mm 0 W/m2
23:49 60.6 °F /  15.9 °C 53.1 °F /  11.7 °C 30.15in /  1020.9hPa WNW 0.7mph /  1.1km/h 3mph /  4.8km/h 76% 0.00in /  0mm 0 W/m2
23:54 60.4 °F /  15.8 °C 52.9 °F /  11.6 °C 30.15in /  1020.9hPa Calm   2mph /  3.2km/h 76% 0.00in /  0mm 0 W/m2
23:59 60.3 °F /  15.7 °C 52.7 °F /  11.5 °C 30.15in /  1020.9hPa Calm     76% 0.00in /  0mm 0 W/m2
Bath Spa Weather
Compliments of Weather Underground - 2 mb